createdAt,value
2019-03-03T00:01:09.896Z,11.70
2019-03-03T00:02:14.965Z,11.69
2019-03-03T00:03:19.988Z,11.67
2019-03-03T00:04:25.032Z,11.66
2019-03-03T00:05:30.082Z,11.66
2019-03-03T00:06:35.286Z,11.64
2019-03-03T00:07:40.541Z,11.65
2019-03-03T00:08:45.752Z,11.64
2019-03-03T00:09:51.300Z,11.65
2019-03-03T00:10:56.263Z,11.64
2019-03-03T00:12:01.390Z,11.64
2019-03-03T00:13:06.773Z,11.63
2019-03-03T00:14:11.782Z,11.63
2019-03-03T00:15:16.795Z,11.62
2019-03-03T00:16:22.232Z,11.63
2019-03-03T00:17:27.255Z,11.62
2019-03-03T00:18:32.514Z,11.62
2019-03-03T00:19:37.511Z,11.65
2019-03-03T00:20:42.812Z,11.64
2019-03-03T00:21:47.874Z,11.64
2019-03-03T00:22:52.931Z,11.65
2019-03-03T00:23:57.852Z,11.65
2019-03-03T00:25:02.923Z,11.65
2019-03-03T00:26:08.248Z,11.65
2019-03-03T00:27:13.551Z,11.65
2019-03-03T00:28:18.488Z,11.65
2019-03-03T00:29:23.414Z,11.66
2019-03-03T00:30:28.496Z,11.66
2019-03-03T00:31:38.713Z,11.66
2019-03-03T00:32:43.689Z,11.66
2019-03-03T00:33:48.886Z,11.66
2019-03-03T00:34:53.944Z,11.66
2019-03-03T00:35:59.022Z,11.66
2019-03-03T00:37:26.029Z,11.67
2019-03-03T00:38:42.525Z,11.67
2019-03-03T00:40:05.182Z,11.66
2019-03-03T00:41:38.433Z,11.67
2019-03-03T00:42:54.594Z,11.65
2019-03-03T00:44:27.633Z,11.64
2019-03-03T00:45:57.978Z,11.63
2019-03-03T00:47:21.617Z,11.62
2019-03-03T00:48:48.639Z,11.62
2019-03-03T00:49:59.174Z,11.61
2019-03-03T00:51:10.147Z,11.60
2019-03-03T00:52:21.311Z,11.59
2019-03-03T00:53:36.747Z,11.60
2019-03-03T00:54:56.364Z,11.60
2019-03-03T00:56:16.303Z,11.60
2019-03-03T00:57:46.384Z,11.60
2019-03-03T00:59:01.754Z,11.59
2019-03-03T01:00:17.889Z,11.60
2019-03-03T01:01:59.736Z,11.61
2019-03-03T01:03:13.310Z,11.63
2019-03-03T01:04:27.510Z,11.63
2019-03-03T01:05:42.723Z,11.66
2019-03-03T01:07:06.051Z,11.70
2019-03-03T01:08:41.976Z,11.72
2019-03-03T01:10:06.028Z,11.71
2019-03-03T01:11:27.278Z,11.76
2019-03-03T01:12:40.865Z,11.79
2019-03-03T01:14:00.627Z,11.81
2019-03-03T01:15:34.781Z,11.84
2019-03-03T01:16:47.192Z,11.86
2019-03-03T01:18:08.977Z,11.89
2019-03-03T01:19:38.936Z,11.91
2019-03-03T01:21:08.844Z,11.95
2019-03-03T01:22:27.149Z,11.98
2019-03-03T01:23:48.721Z,12.01
2019-03-03T01:24:57.578Z,12.04
2019-03-03T01:26:02.785Z,12.05
2019-03-03T01:27:07.799Z,12.08
2019-03-03T01:28:12.919Z,12.08
2019-03-03T01:29:18.070Z,12.09
2019-03-03T01:30:23.112Z,12.10
2019-03-03T01:31:28.059Z,12.12
2019-03-03T01:32:33.270Z,12.12
2019-03-03T01:33:38.213Z,12.13
2019-03-03T01:34:43.239Z,12.14
2019-03-03T01:35:48.168Z,12.16
2019-03-03T01:36:53.408Z,12.17
2019-03-03T01:37:58.446Z,12.18
2019-03-03T01:39:04.911Z,12.20
2019-03-03T01:40:10.083Z,12.22
2019-03-03T01:41:15.217Z,12.23
2019-03-03T01:42:20.193Z,12.25
2019-03-03T01:43:25.259Z,12.25
2019-03-03T01:44:30.351Z,12.26
2019-03-03T01:45:35.468Z,12.27
2019-03-03T01:46:40.595Z,12.27
2019-03-03T01:47:45.630Z,12.27
2019-03-03T01:48:51.183Z,12.25
2019-03-03T01:49:56.186Z,12.25
2019-03-03T01:51:01.247Z,12.25
2019-03-03T01:52:06.331Z,12.25
2019-03-03T01:53:11.368Z,12.25
2019-03-03T01:54:16.393Z,12.24
2019-03-03T01:55:21.702Z,12.24
2019-03-03T01:56:26.880Z,12.24
2019-03-03T01:57:31.823Z,12.23
2019-03-03T01:58:36.850Z,12.23
2019-03-03T01:59:42.050Z,12.23
2019-03-03T02:00:47.301Z,12.23
2019-03-03T02:01:52.382Z,12.23
2019-03-03T02:02:58.154Z,12.24
2019-03-03T02:04:03.256Z,12.23
2019-03-03T02:05:08.264Z,12.22
2019-03-03T02:06:13.346Z,12.23
2019-03-03T02:07:18.343Z,12.22
2019-03-03T02:08:23.292Z,12.19
2019-03-03T02:09:28.307Z,12.18
2019-03-03T02:10:33.603Z,12.18
2019-03-03T02:11:38.818Z,12.17
2019-03-03T02:12:44.142Z,12.17
2019-03-03T02:13:49.183Z,12.17
2019-03-03T02:14:54.226Z,12.17
2019-03-03T02:15:59.654Z,12.17
2019-03-03T02:17:05.589Z,12.17
2019-03-03T02:18:10.922Z,12.17
2019-03-03T02:19:15.931Z,12.17
2019-03-03T02:20:21.106Z,12.17
2019-03-03T02:21:26.208Z,12.17
2019-03-03T02:22:31.470Z,12.18
2019-03-03T02:23:36.502Z,12.18
2019-03-03T02:24:41.924Z,12.18
2019-03-03T02:25:47.031Z,12.18
2019-03-03T02:26:52.189Z,12.19
2019-03-03T02:27:57.362Z,12.17
2019-03-03T02:29:02.271Z,12.19
2019-03-03T02:30:11.412Z,12.19
2019-03-03T02:31:16.437Z,12.20
2019-03-03T02:32:21.820Z,12.19
2019-03-03T02:33:26.720Z,12.20
2019-03-03T02:34:31.764Z,12.20
2019-03-03T02:35:36.714Z,12.19
2019-03-03T02:36:41.705Z,12.19
2019-03-03T02:37:47.194Z,12.19
2019-03-03T02:38:52.175Z,12.20
2019-03-03T02:39:57.169Z,12.20
2019-03-03T02:41:02.232Z,12.20
2019-03-03T02:42:07.771Z,12.20
2019-03-03T02:43:12.808Z,12.19
2019-03-03T02:44:18.043Z,12.20
2019-03-03T02:45:23.288Z,12.22
2019-03-03T02:46:28.234Z,12.22
2019-03-03T02:47:33.242Z,12.22
2019-03-03T02:48:38.225Z,12.22
2019-03-03T02:49:43.749Z,12.22
2019-03-03T02:50:48.901Z,12.23
2019-03-03T02:51:53.903Z,12.24
2019-03-03T02:52:58.972Z,12.24
2019-03-03T02:54:04.210Z,12.24
2019-03-03T02:55:10.875Z,12.25
2019-03-03T02:56:15.888Z,12.25
2019-03-03T02:57:20.855Z,12.25
2019-03-03T02:58:25.924Z,12.24
2019-03-03T02:59:30.866Z,12.25
2019-03-03T03:00:38.037Z,12.25
2019-03-03T03:01:55.711Z,12.26
2019-03-03T03:03:01.838Z,12.27
2019-03-03T03:04:06.932Z,12.27
2019-03-03T03:05:12.497Z,12.26
2019-03-03T03:06:42.301Z,12.27
2019-03-03T03:08:08.223Z,12.27
2019-03-03T03:09:22.641Z,12.27
2019-03-03T03:10:45.081Z,12.27
2019-03-03T03:12:07.942Z,12.27
2019-03-03T03:13:31.903Z,12.25
2019-03-03T03:14:45.432Z,12.24
2019-03-03T03:15:58.725Z,12.22
2019-03-03T03:17:13.908Z,12.22
2019-03-03T03:18:29.033Z,12.21
2019-03-03T03:19:41.607Z,12.20
2019-03-03T03:21:04.280Z,12.19
2019-03-03T03:22:16.285Z,12.19
2019-03-03T03:23:30.475Z,12.20
2019-03-03T03:24:53.042Z,12.18
2019-03-03T03:26:10.530Z,12.18
2019-03-03T03:27:36.488Z,12.18
2019-03-03T03:28:50.837Z,12.17
2019-03-03T03:30:12.968Z,12.20
2019-03-03T03:31:26.375Z,12.19
2019-03-03T03:32:36.304Z,12.20
2019-03-03T03:33:54.983Z,12.20
2019-03-03T03:35:31.113Z,12.21
2019-03-03T03:36:42.718Z,12.21
2019-03-03T03:37:57.664Z,12.20
2019-03-03T03:39:20.131Z,12.20
2019-03-03T03:40:42.770Z,12.19
2019-03-03T03:42:15.757Z,12.18
2019-03-03T03:43:38.452Z,12.18
2019-03-03T03:44:51.510Z,12.18
2019-03-03T03:46:16.893Z,12.20
2019-03-03T03:47:43.842Z,12.20
2019-03-03T03:49:06.310Z,12.21
2019-03-03T03:50:20.673Z,12.21
2019-03-03T03:51:36.611Z,12.22
2019-03-03T03:53:06.637Z,12.24
2019-03-03T03:54:20.649Z,12.24
2019-03-03T03:55:53.567Z,12.25
2019-03-03T03:57:12.095Z,12.25
2019-03-03T03:58:42.200Z,12.24
2019-03-03T04:00:12.520Z,12.24
2019-03-03T04:01:45.607Z,12.23
2019-03-03T04:03:22.205Z,12.22
2019-03-03T04:04:44.147Z,12.21
2019-03-03T04:06:14.368Z,12.18
2019-03-03T04:07:37.209Z,12.16
2019-03-03T04:08:55.660Z,12.15
2019-03-03T04:10:19.590Z,12.14
2019-03-03T04:11:39.605Z,12.14
2019-03-03T04:13:03.567Z,12.12
2019-03-03T04:14:27.871Z,12.11
2019-03-03T04:16:00.659Z,12.10
2019-03-03T04:17:23.411Z,12.10
2019-03-03T04:18:37.754Z,12.11
2019-03-03T04:20:07.878Z,12.11
2019-03-03T04:21:22.075Z,12.12
2019-03-03T04:22:46.087Z,12.13
2019-03-03T04:24:12.860Z,12.13
2019-03-03T04:25:35.326Z,12.11
2019-03-03T04:26:50.405Z,12.11
2019-03-03T04:28:26.685Z,12.10
2019-03-03T04:29:36.320Z,12.11
2019-03-03T04:30:58.789Z,12.10
2019-03-03T04:32:08.565Z,12.13
2019-03-03T04:33:44.682Z,12.15
2019-03-03T04:35:02.221Z,12.16
2019-03-03T04:36:26.471Z,12.17
2019-03-03T04:37:47.698Z,12.18
2019-03-03T04:39:11.873Z,12.20
2019-03-03T04:40:29.149Z,12.23
2019-03-03T04:41:48.387Z,12.26
2019-03-03T04:43:05.355Z,12.26
2019-03-03T04:44:28.143Z,12.25
2019-03-03T04:45:55.177Z,12.25
2019-03-03T04:47:18.117Z,12.25
2019-03-03T04:48:37.137Z,12.23
2019-03-03T04:50:07.174Z,12.23
2019-03-03T04:51:29.677Z,12.23
2019-03-03T04:52:43.426Z,12.24
2019-03-03T04:53:58.867Z,12.24
2019-03-03T04:55:26.135Z,12.26
2019-03-03T04:56:50.115Z,12.26
2019-03-03T04:58:03.186Z,12.29
2019-03-03T04:59:18.629Z,12.31
2019-03-03T05:00:54.618Z,12.32
2019-03-03T05:02:30.787Z,12.31
2019-03-03T05:04:00.797Z,12.32
2019-03-03T05:05:13.337Z,12.33
2019-03-03T05:06:23.665Z,12.33
2019-03-03T05:07:39.235Z,12.34
2019-03-03T05:08:49.548Z,12.35
2019-03-03T05:10:13.160Z,12.36
2019-03-03T05:12:28.775Z,12.37
2019-03-03T05:13:52.821Z,12.38
2019-03-03T05:15:02.938Z,12.40
2019-03-03T05:16:27.183Z,12.40
2019-03-03T05:17:46.569Z,12.42
2019-03-03T05:19:04.113Z,12.42
2019-03-03T05:20:09.626Z,12.42
2019-03-03T05:21:14.558Z,12.43
2019-03-03T05:22:19.561Z,12.43
2019-03-03T05:23:24.606Z,12.43
2019-03-03T05:24:34.255Z,12.45
2019-03-03T05:25:36.336Z,12.46
2019-03-03T05:26:41.292Z,12.47
2019-03-03T05:27:46.232Z,12.46
2019-03-03T05:28:51.251Z,12.44
2019-03-03T05:29:56.285Z,12.45
2019-03-03T05:31:01.226Z,12.46
2019-03-03T05:32:06.309Z,12.47
2019-03-03T05:33:11.506Z,12.47
2019-03-03T05:34:16.431Z,12.48
2019-03-03T05:35:21.311Z,12.48
2019-03-03T05:36:26.558Z,12.47
2019-03-03T05:37:31.913Z,12.46
2019-03-03T05:38:36.970Z,12.46
2019-03-03T05:39:41.933Z,12.47
2019-03-03T05:40:46.988Z,12.48
2019-03-03T05:41:52.001Z,12.48
2019-03-03T05:42:56.982Z,12.50
2019-03-03T05:44:02.032Z,12.52
2019-03-03T05:45:07.466Z,12.52
2019-03-03T05:46:12.999Z,12.53
2019-03-03T05:47:18.002Z,12.55
2019-03-03T05:48:22.955Z,12.54
2019-03-03T05:49:28.007Z,12.56
2019-03-03T05:50:32.949Z,12.56
2019-03-03T05:51:38.295Z,12.55
2019-03-03T05:52:43.521Z,12.55
2019-03-03T05:53:48.525Z,12.56
2019-03-03T05:54:53.491Z,12.57
2019-03-03T05:55:58.814Z,12.56
2019-03-03T05:57:03.917Z,12.57
2019-03-03T05:58:09.187Z,12.59
2019-03-03T05:59:14.622Z,12.59
2019-03-03T06:00:19.977Z,12.59
2019-03-03T06:01:24.941Z,12.59
2019-03-03T06:02:30.057Z,12.59
2019-03-03T06:03:35.107Z,12.60
2019-03-03T06:04:40.118Z,12.60
2019-03-03T06:05:47.421Z,12.60
2019-03-03T06:06:52.681Z,12.59
2019-03-03T06:07:57.688Z,12.60
2019-03-03T06:09:02.725Z,12.61
2019-03-03T06:10:07.865Z,12.62
2019-03-03T06:11:12.947Z,12.63
2019-03-03T06:12:17.974Z,12.63
2019-03-03T06:13:23.283Z,12.63
2019-03-03T06:14:28.274Z,12.63
2019-03-03T06:15:33.436Z,12.65
2019-03-03T06:16:38.474Z,12.68
2019-03-03T06:17:43.846Z,12.68
2019-03-03T06:18:49.350Z,12.69
2019-03-03T06:19:54.355Z,12.68
2019-03-03T06:20:59.741Z,12.68
2019-03-03T06:22:05.071Z,12.67
2019-03-03T06:23:10.063Z,12.65
2019-03-03T06:24:15.062Z,12.64
2019-03-03T06:25:19.962Z,12.63
2019-03-03T06:26:25.151Z,12.62
2019-03-03T06:27:30.151Z,12.62
2019-03-03T06:28:35.134Z,12.61
2019-03-03T06:29:40.175Z,12.61
2019-03-03T06:30:45.284Z,12.62
2019-03-03T06:31:50.469Z,12.62
2019-03-03T06:32:55.524Z,12.61
2019-03-03T06:34:00.624Z,12.60
2019-03-03T06:35:07.034Z,12.61
2019-03-03T06:36:12.081Z,12.60
2019-03-03T06:37:17.409Z,12.58
2019-03-03T06:38:22.448Z,12.58
2019-03-03T06:39:27.427Z,12.58
2019-03-03T06:40:32.495Z,12.57
2019-03-03T06:41:37.697Z,12.56
2019-03-03T06:42:42.931Z,12.57
2019-03-03T06:43:48.022Z,12.57
2019-03-03T06:44:52.959Z,12.60
2019-03-03T06:45:58.274Z,12.58
2019-03-03T06:47:03.208Z,12.58
2019-03-03T06:48:08.462Z,12.60
2019-03-03T06:49:13.518Z,12.61
2019-03-03T06:50:18.587Z,12.62
2019-03-03T06:51:23.645Z,12.65
2019-03-03T06:52:28.610Z,12.66
2019-03-03T06:53:33.951Z,12.66
2019-03-03T06:54:39.073Z,12.64
2019-03-03T06:55:44.406Z,12.67
2019-03-03T06:56:49.610Z,12.66
2019-03-03T06:57:54.672Z,12.67
2019-03-03T06:58:59.694Z,12.69
2019-03-03T07:00:06.184Z,12.70
2019-03-03T07:01:11.121Z,12.71
2019-03-03T07:02:16.672Z,12.72
2019-03-03T07:03:21.760Z,12.70
2019-03-03T07:04:26.681Z,12.71
2019-03-03T07:05:31.633Z,12.71
2019-03-03T07:06:36.723Z,12.71
2019-03-03T07:07:41.971Z,12.73
2019-03-03T07:08:47.039Z,12.74
2019-03-03T07:09:51.996Z,12.74
2019-03-03T07:10:57.023Z,12.76
2019-03-03T07:12:02.181Z,12.77
2019-03-03T07:13:07.431Z,12.80
2019-03-03T07:14:12.481Z,12.81
2019-03-03T07:15:17.599Z,12.81
2019-03-03T07:16:22.607Z,12.80
2019-03-03T07:17:27.554Z,12.80
2019-03-03T07:18:32.544Z,12.81
2019-03-03T07:19:37.729Z,12.82
2019-03-03T07:20:42.975Z,12.85
2019-03-03T07:21:48.168Z,12.86
2019-03-03T07:22:53.416Z,12.87
2019-03-03T07:23:58.363Z,12.88
2019-03-03T07:25:03.417Z,12.89
2019-03-03T07:26:08.500Z,12.91
2019-03-03T07:27:13.563Z,12.93
2019-03-03T07:28:18.545Z,12.94
2019-03-03T07:29:23.655Z,12.95
2019-03-03T07:30:28.682Z,12.95
2019-03-03T07:31:34.124Z,12.95
2019-03-03T07:32:45.439Z,12.97
2019-03-03T07:33:53.909Z,12.97
2019-03-03T07:34:58.928Z,12.98
2019-03-03T07:36:04.038Z,12.98
2019-03-03T07:37:09.084Z,12.99
2019-03-03T07:38:14.116Z,13.01
2019-03-03T07:39:19.690Z,13.02
2019-03-03T07:40:24.828Z,13.03
2019-03-03T07:41:30.149Z,13.04
2019-03-03T07:42:35.346Z,13.04
2019-03-03T07:43:40.776Z,13.06
2019-03-03T07:44:45.833Z,13.08
2019-03-03T07:45:50.943Z,13.09
2019-03-03T07:46:56.016Z,13.12
2019-03-03T07:48:01.399Z,13.13
2019-03-03T07:49:06.393Z,13.14
2019-03-03T07:50:11.433Z,13.16
2019-03-03T07:51:16.497Z,13.17
2019-03-03T07:52:21.458Z,13.18
2019-03-03T07:53:26.505Z,13.20
2019-03-03T07:54:31.468Z,13.19
2019-03-03T07:55:36.628Z,13.18
2019-03-03T07:56:41.609Z,13.17
2019-03-03T07:57:47.078Z,13.17
2019-03-03T07:58:52.117Z,13.15
2019-03-03T07:59:57.203Z,13.14
2019-03-03T08:01:02.277Z,13.13
2019-03-03T08:02:07.327Z,13.12
2019-03-03T08:03:12.626Z,13.14
2019-03-03T08:04:17.689Z,13.14
2019-03-03T08:05:22.727Z,13.13
2019-03-03T08:06:28.304Z,13.13
2019-03-03T08:07:33.564Z,13.12
2019-03-03T08:08:38.543Z,13.11
2019-03-03T08:09:43.596Z,13.11
2019-03-03T08:10:48.600Z,13.10
2019-03-03T08:11:53.824Z,13.11
2019-03-03T08:13:08.754Z,13.12
2019-03-03T08:14:05.552Z,13.11
2019-03-03T08:15:10.666Z,13.11
2019-03-03T08:16:15.671Z,13.11
2019-03-03T08:17:20.959Z,13.10
2019-03-03T08:18:26.038Z,13.10
2019-03-03T08:19:31.300Z,13.10
2019-03-03T08:20:36.632Z,13.10
2019-03-03T08:21:41.734Z,13.12
2019-03-03T08:22:46.926Z,13.11
2019-03-03T08:23:51.923Z,13.08
2019-03-03T08:24:56.912Z,13.06
2019-03-03T08:26:01.887Z,13.08
2019-03-03T08:27:06.875Z,13.08
2019-03-03T08:28:11.826Z,13.08
2019-03-03T08:29:16.836Z,13.06
2019-03-03T08:30:22.007Z,13.04
2019-03-03T08:31:27.243Z,13.03
2019-03-03T08:32:32.395Z,13.04
2019-03-03T08:33:37.427Z,13.03
2019-03-03T08:34:42.708Z,13.03
2019-03-03T08:35:48.095Z,13.01
2019-03-03T08:36:53.186Z,12.98
2019-03-03T08:37:58.154Z,12.98
2019-03-03T08:39:03.794Z,12.95
2019-03-03T08:40:09.337Z,12.91
2019-03-03T08:41:14.590Z,12.89
2019-03-03T08:42:37.057Z,12.87
2019-03-03T08:43:49.680Z,12.83
2019-03-03T08:45:13.631Z,12.78
2019-03-03T08:46:29.564Z,12.76
2019-03-03T08:47:38.558Z,12.71
2019-03-03T08:48:51.653Z,12.70
2019-03-03T08:50:03.687Z,12.68
2019-03-03T08:51:27.255Z,12.66
2019-03-03T08:52:41.572Z,12.66
2019-03-03T08:54:08.675Z,12.64
2019-03-03T08:55:38.712Z,12.62
2019-03-03T08:57:02.657Z,12.61
2019-03-03T08:58:20.973Z,12.59
2019-03-03T08:59:49.978Z,12.58
2019-03-03T09:01:29.158Z,12.59
2019-03-03T09:02:56.069Z,12.58
2019-03-03T09:04:20.318Z,12.60
2019-03-03T09:05:50.768Z,12.59
2019-03-03T09:07:20.891Z,12.61
2019-03-03T09:08:43.393Z,12.61
2019-03-03T09:09:58.115Z,12.62
2019-03-03T09:11:22.078Z,12.60
2019-03-03T09:12:32.267Z,12.59
2019-03-03T09:13:46.865Z,12.56
2019-03-03T09:15:09.565Z,12.56
2019-03-03T09:16:24.772Z,12.57
2019-03-03T09:17:48.153Z,12.58
2019-03-03T09:19:03.093Z,12.60
2019-03-03T09:20:28.102Z,12.63
2019-03-03T09:21:54.797Z,12.66
2019-03-03T09:23:17.289Z,12.69
2019-03-03T09:24:47.355Z,12.72
2019-03-03T09:26:14.948Z,12.73
2019-03-03T09:27:57.301Z,12.75
2019-03-03T09:29:18.108Z,12.73
2019-03-03T09:30:42.199Z,12.73
2019-03-03T09:32:04.749Z,12.74
2019-03-03T09:33:27.453Z,12.72
2019-03-03T09:34:50.295Z,12.70
2019-03-03T09:36:09.124Z,12.67
2019-03-03T09:37:25.941Z,12.62
2019-03-03T09:38:45.087Z,12.60
2019-03-03T09:40:09.858Z,12.58
2019-03-03T09:41:25.631Z,12.59
2019-03-03T09:43:01.712Z,12.59
2019-03-03T09:44:14.822Z,12.57
2019-03-03T09:45:34.647Z,12.58
2019-03-03T09:46:57.064Z,12.60
2019-03-03T09:48:21.005Z,12.62
2019-03-03T09:49:32.331Z,12.64
2019-03-03T09:50:55.054Z,12.67
2019-03-03T09:52:15.361Z,12.68
2019-03-03T09:53:37.824Z,12.68
2019-03-03T09:55:01.708Z,12.71
2019-03-03T09:56:13.287Z,12.71
2019-03-03T09:57:46.338Z,12.73
2019-03-03T09:59:08.989Z,12.71
2019-03-03T10:00:31.921Z,12.73
2019-03-03T10:01:55.975Z,12.74
2019-03-03T10:03:07.253Z,12.76
2019-03-03T10:04:29.947Z,12.77
2019-03-03T10:06:03.219Z,12.76
2019-03-03T10:07:33.220Z,12.76
2019-03-03T10:09:02.960Z,12.79
2019-03-03T10:10:23.124Z,12.80
2019-03-03T10:11:49.451Z,12.81
2019-03-03T10:13:06.490Z,12.84
2019-03-03T10:14:19.771Z,12.83
2019-03-03T10:15:44.590Z,12.82
2019-03-03T10:17:09.857Z,12.84
2019-03-03T10:18:23.910Z,12.84
2019-03-03T10:19:46.575Z,12.88
2019-03-03T10:21:07.037Z,12.91
2019-03-03T10:22:39.974Z,12.92
2019-03-03T10:24:04.367Z,12.94
2019-03-03T10:25:20.506Z,12.94
2019-03-03T10:26:47.671Z,12.92
2019-03-03T10:28:17.416Z,12.93
2019-03-03T10:29:36.237Z,12.92
2019-03-03T10:31:00.246Z,12.90
2019-03-03T10:32:14.347Z,12.90
2019-03-03T10:33:37.274Z,12.88
2019-03-03T10:34:55.290Z,12.89
2019-03-03T10:36:19.309Z,12.92
2019-03-03T10:37:42.065Z,12.92
2019-03-03T10:38:53.517Z,12.95
2019-03-03T10:40:23.162Z,12.96
2019-03-03T10:41:45.811Z,12.97
2019-03-03T10:43:04.531Z,13.01
2019-03-03T10:44:28.832Z,13.03
2019-03-03T10:45:51.843Z,13.04
2019-03-03T10:47:13.182Z,13.05
2019-03-03T10:48:38.788Z,13.06
2019-03-03T10:50:09.182Z,13.07
2019-03-03T10:51:32.704Z,13.08
2019-03-03T10:52:56.837Z,13.08
2019-03-03T10:54:19.408Z,13.09
2019-03-03T10:55:49.230Z,13.09
2019-03-03T10:57:04.865Z,13.11
2019-03-03T10:58:44.167Z,13.14
2019-03-03T11:00:03.328Z,13.15
2019-03-03T11:01:29.962Z,13.16
2019-03-03T11:02:45.304Z,13.18
2019-03-03T11:04:09.312Z,13.22
2019-03-03T11:05:32.321Z,13.23
2019-03-03T11:06:45.656Z,13.25
2019-03-03T11:08:00.757Z,13.25
2019-03-03T11:09:19.222Z,13.28
2019-03-03T11:10:34.078Z,13.32
2019-03-03T11:11:58.268Z,13.35
2019-03-03T11:13:20.936Z,13.38
2019-03-03T11:14:50.727Z,13.40
2019-03-03T11:16:11.560Z,13.40
2019-03-03T11:17:38.814Z,13.42
2019-03-03T11:18:56.289Z,13.44
2019-03-03T11:20:10.877Z,13.44
2019-03-03T11:21:43.951Z,13.43
2019-03-03T11:23:11.449Z,13.44
2019-03-03T11:24:25.495Z,13.46
2019-03-03T11:25:58.240Z,13.49
2019-03-03T11:27:25.197Z,13.51
2019-03-03T11:28:51.778Z,13.51
2019-03-03T11:30:14.531Z,13.52
2019-03-03T11:31:37.336Z,13.52
2019-03-03T11:32:52.214Z,13.53
2019-03-03T11:34:16.445Z,13.54
2019-03-03T11:35:49.679Z,13.57
2019-03-03T11:37:22.794Z,13.60
2019-03-03T11:38:47.264Z,13.65
2019-03-03T11:39:59.218Z,13.68
2019-03-03T11:41:14.002Z,13.72
2019-03-03T11:42:33.344Z,13.77
2019-03-03T11:43:49.129Z,13.82
2019-03-03T11:45:08.883Z,13.84
2019-03-03T11:46:36.365Z,13.86
2019-03-03T11:48:04.748Z,13.89
2019-03-03T11:49:27.626Z,13.92
2019-03-03T11:50:50.029Z,13.93
2019-03-03T11:52:12.545Z,13.94
2019-03-03T11:53:29.573Z,13.95
2019-03-03T11:54:47.220Z,13.94
2019-03-03T11:56:11.329Z,13.94
2019-03-03T11:57:21.852Z,13.93
2019-03-03T11:58:47.700Z,13.92
2019-03-03T12:00:05.621Z,13.92
2019-03-03T12:01:41.723Z,13.95
2019-03-03T12:02:56.763Z,13.97
2019-03-03T12:04:21.748Z,14.00
2019-03-03T12:05:57.915Z,14.01
2019-03-03T12:07:13.568Z,14.03
2019-03-03T12:08:40.399Z,14.05
2019-03-03T12:09:52.080Z,14.05
2019-03-03T12:11:14.995Z,14.05
2019-03-03T12:12:36.402Z,14.04
2019-03-03T12:14:09.479Z,14.05
2019-03-03T12:15:32.334Z,14.06
2019-03-03T12:16:48.666Z,14.04
2019-03-03T12:18:09.235Z,14.04
2019-03-03T12:19:36.551Z,14.05
2019-03-03T12:21:05.849Z,14.07
2019-03-03T12:22:31.911Z,14.09
2019-03-03T12:23:58.901Z,14.12
2019-03-03T12:25:25.032Z,14.13
2019-03-03T12:27:01.123Z,14.17
2019-03-03T12:28:30.781Z,14.18
2019-03-03T12:29:48.946Z,14.20
2019-03-03T12:31:01.797Z,14.18
2019-03-03T12:32:22.689Z,14.18
2019-03-03T12:33:55.838Z,14.18
2019-03-03T12:35:19.858Z,14.20
2019-03-03T12:36:37.447Z,14.18
2019-03-03T12:37:57.379Z,14.18
2019-03-03T12:39:18.277Z,14.17
2019-03-03T12:40:57.336Z,14.19
2019-03-03T12:42:30.280Z,14.19
2019-03-03T12:43:42.773Z,14.20
2019-03-03T12:45:09.573Z,14.20
2019-03-03T12:46:39.804Z,14.22
2019-03-03T12:47:52.727Z,14.22
2019-03-03T12:49:10.038Z,14.20
2019-03-03T12:50:52.342Z,14.19
2019-03-03T12:52:25.355Z,14.19
2019-03-03T12:53:43.358Z,14.17
2019-03-03T12:55:10.156Z,14.17
2019-03-03T12:56:28.788Z,14.17
2019-03-03T12:57:45.221Z,14.18
2019-03-03T12:59:21.291Z,14.20
2019-03-03T13:00:57.330Z,14.20
2019-03-03T13:02:20.176Z,14.17
2019-03-03T13:03:41.666Z,14.15
2019-03-03T13:05:08.667Z,14.14
2019-03-03T13:06:24.340Z,14.13
2019-03-03T13:07:49.630Z,14.13
2019-03-03T13:09:18.861Z,14.12
2019-03-03T13:10:40.873Z,14.13
2019-03-03T13:12:16.922Z,14.13
2019-03-03T13:13:39.111Z,14.12
2019-03-03T13:15:03.492Z,14.12
2019-03-03T13:16:33.598Z,14.12
2019-03-03T13:17:48.193Z,14.16
2019-03-03T13:18:59.683Z,14.16
2019-03-03T13:20:29.150Z,14.17
2019-03-03T13:21:56.325Z,14.19
2019-03-03T13:23:19.130Z,14.18
2019-03-03T13:24:41.532Z,14.17
2019-03-03T13:26:17.418Z,14.16
2019-03-03T13:27:38.042Z,14.16
2019-03-03T13:29:11.016Z,14.18
2019-03-03T13:30:38.316Z,14.17
2019-03-03T13:31:50.083Z,14.17
2019-03-03T13:33:17.004Z,14.16
2019-03-03T13:34:50.146Z,14.15
2019-03-03T13:36:06.907Z,14.15
2019-03-03T13:37:40.900Z,14.14
2019-03-03T13:39:07.902Z,14.12
2019-03-03T13:40:46.743Z,14.12
2019-03-03T13:42:00.511Z,14.09
2019-03-03T13:43:05.659Z,14.07
2019-03-03T13:44:10.801Z,14.06
2019-03-03T13:45:16.362Z,14.05
2019-03-03T13:46:21.478Z,14.05
2019-03-03T13:47:26.924Z,14.05
2019-03-03T13:48:32.139Z,14.04
2019-03-03T13:49:37.292Z,14.04
2019-03-03T13:50:42.474Z,14.04
2019-03-03T13:51:47.397Z,14.03
2019-03-03T13:52:52.504Z,14.03
2019-03-03T13:53:58.166Z,14.03
2019-03-03T13:55:03.238Z,14.03
2019-03-03T13:56:08.735Z,14.02
2019-03-03T13:57:13.818Z,14.04
2019-03-03T13:58:18.904Z,14.06
2019-03-03T13:59:24.024Z,14.07
2019-03-03T14:00:29.315Z,14.10
2019-03-03T14:01:34.546Z,14.10
2019-03-03T14:02:39.902Z,14.11
2019-03-03T14:03:44.882Z,14.10
2019-03-03T14:04:50.058Z,14.10
2019-03-03T14:05:55.089Z,14.12
2019-03-03T14:07:00.302Z,14.10
2019-03-03T14:08:05.388Z,14.10
2019-03-03T14:09:10.905Z,14.12
2019-03-03T14:10:16.025Z,14.13
2019-03-03T14:11:27.086Z,14.12
2019-03-03T14:12:32.097Z,14.12
2019-03-03T14:13:37.166Z,14.15
2019-03-03T14:14:42.292Z,14.14
2019-03-03T14:15:47.425Z,14.13
2019-03-03T14:16:52.408Z,14.13
2019-03-03T14:17:58.167Z,14.14
2019-03-03T14:19:03.164Z,14.16
2019-03-03T14:20:12.735Z,14.16
2019-03-03T14:21:17.819Z,14.19
2019-03-03T14:22:22.827Z,14.20
2019-03-03T14:23:27.840Z,14.20
2019-03-03T14:24:32.824Z,14.19
2019-03-03T14:25:37.918Z,14.22
2019-03-03T14:26:43.209Z,14.23
2019-03-03T14:27:48.534Z,14.25
2019-03-03T14:28:55.235Z,14.26
2019-03-03T14:30:00.381Z,14.26
2019-03-03T14:31:05.449Z,14.29
2019-03-03T14:32:10.633Z,14.31
2019-03-03T14:33:15.747Z,14.33
2019-03-03T14:34:21.123Z,14.34
2019-03-03T14:35:26.322Z,14.32
2019-03-03T14:36:31.274Z,14.31
2019-03-03T14:37:36.488Z,14.29
2019-03-03T14:38:42.004Z,14.29
2019-03-03T14:39:47.063Z,14.28
2019-03-03T14:40:52.094Z,14.28
2019-03-03T14:41:57.360Z,14.31
2019-03-03T14:43:02.430Z,14.32
2019-03-03T14:44:07.470Z,14.34
2019-03-03T14:45:14.158Z,14.35
2019-03-03T14:46:19.116Z,14.34
2019-03-03T14:47:24.115Z,14.34
2019-03-03T14:48:29.460Z,14.34
2019-03-03T14:49:34.646Z,14.34
2019-03-03T14:50:39.924Z,14.35
2019-03-03T14:51:45.141Z,14.35
2019-03-03T14:52:50.549Z,14.32
2019-03-03T14:53:55.532Z,14.32
2019-03-03T14:55:00.539Z,14.31
2019-03-03T14:56:05.531Z,14.30
2019-03-03T14:57:10.522Z,14.28
2019-03-03T14:58:15.607Z,14.29
2019-03-03T14:59:20.674Z,14.28
2019-03-03T15:00:30.475Z,14.26
2019-03-03T15:01:35.730Z,14.26
2019-03-03T15:02:41.117Z,14.28
2019-03-03T15:03:46.182Z,14.26
2019-03-03T15:04:51.224Z,14.27
2019-03-03T15:05:56.195Z,14.27
2019-03-03T15:07:01.254Z,14.27
2019-03-03T15:08:06.314Z,14.28
2019-03-03T15:09:20.372Z,14.28
2019-03-03T15:10:25.557Z,14.28
2019-03-03T15:11:30.610Z,14.28
2019-03-03T15:12:36.001Z,14.29
2019-03-03T15:13:41.209Z,14.29
2019-03-03T15:14:46.298Z,14.30
2019-03-03T15:15:51.529Z,14.29
2019-03-03T15:16:56.635Z,14.28
2019-03-03T15:18:01.818Z,14.29
2019-03-03T15:19:06.861Z,14.29
2019-03-03T15:20:11.987Z,14.31
2019-03-03T15:21:24.796Z,14.31
2019-03-03T15:22:23.721Z,14.32
2019-03-03T15:23:28.695Z,14.32
2019-03-03T15:24:33.878Z,14.34
2019-03-03T15:25:38.829Z,14.34
2019-03-03T15:26:43.903Z,14.34
2019-03-03T15:27:49.281Z,14.33
2019-03-03T15:28:54.298Z,14.32
2019-03-03T15:30:00.276Z,14.32
2019-03-03T15:31:05.442Z,14.31
2019-03-03T15:32:10.786Z,14.32
2019-03-03T15:33:15.830Z,14.30
2019-03-03T15:34:20.779Z,14.30
2019-03-03T15:35:25.827Z,14.31
2019-03-03T15:36:31.234Z,14.31
2019-03-03T15:37:36.252Z,14.32
2019-03-03T15:38:41.317Z,14.33
2019-03-03T15:39:46.969Z,14.34
2019-03-03T15:40:52.233Z,14.34
2019-03-03T15:41:57.320Z,14.35
2019-03-03T15:43:02.472Z,14.33